createdAt,value
2018-05-25T00:00:54.499Z,78.46
2018-05-25T00:03:57.611Z,78.65
2018-05-25T00:06:59.649Z,78.20
2018-05-25T00:10:01.730Z,78.71
2018-05-25T00:13:03.806Z,78.34
2018-05-25T00:16:05.891Z,78.66
2018-05-25T00:19:07.924Z,78.46
2018-05-25T00:22:11.212Z,78.36
2018-05-25T00:25:13.302Z,77.91
2018-05-25T00:28:15.480Z,78.15
2018-05-25T00:31:17.566Z,78.30
2018-05-25T00:34:19.642Z,78.27
2018-05-25T00:37:34.660Z,78.39
2018-05-25T00:40:36.751Z,79.33
2018-05-25T00:43:39.752Z,79.29
2018-05-25T00:46:41.899Z,79.27
2018-05-25T00:49:43.970Z,79.37
2018-05-25T00:52:46.056Z,79.30
2018-05-25T00:55:48.023Z,78.62
2018-05-25T00:58:50.499Z,78.47
2018-05-25T01:01:52.592Z,78.63
2018-05-25T01:04:54.752Z,78.51
2018-05-25T01:08:04.537Z,78.24
2018-05-25T01:11:06.672Z,78.53
2018-05-25T01:14:09.835Z,79.41
2018-05-25T01:17:11.925Z,79.37
2018-05-25T01:20:14.099Z,79.80
2018-05-25T01:23:16.196Z,79.69
2018-05-25T01:26:18.383Z,80.58
2018-05-25T01:29:20.507Z,80.56
2018-05-25T01:32:22.810Z,79.70
2018-05-25T01:35:24.827Z,79.83
2018-05-25T01:38:26.952Z,79.72
2018-05-25T01:41:29.076Z,80.38
2018-05-25T01:44:31.374Z,80.66
2018-05-25T01:47:33.546Z,80.72
2018-05-25T01:50:35.719Z,80.38
2018-05-25T01:53:37.883Z,80.29
2018-05-25T01:56:40.971Z,80.24
2018-05-25T01:59:43.061Z,80.04
2018-05-25T02:02:45.188Z,79.43
2018-05-25T02:05:47.290Z,80.69
2018-05-25T02:08:49.234Z,80.18
2018-05-25T02:11:52.344Z,80.71
2018-05-25T02:14:54.416Z,80.56
2018-05-25T02:17:58.523Z,80.40
2018-05-25T02:21:00.595Z,79.85
2018-05-25T02:24:02.679Z,80.44
2018-05-25T02:27:04.849Z,80.90
2018-05-25T02:30:07.101Z,81.28
2018-05-25T02:33:10.292Z,81.27
2018-05-25T02:36:13.425Z,81.53
2018-05-25T02:39:15.473Z,81.21
2018-05-25T02:42:23.157Z,81.01
2018-05-25T02:45:25.238Z,81.26
2018-05-25T02:48:27.292Z,81.19
2018-05-25T02:51:41.552Z,80.99
2018-05-25T02:54:43.517Z,80.80
2018-05-25T02:57:45.563Z,81.23
2018-05-25T03:00:47.666Z,80.90
2018-05-25T03:03:49.719Z,81.45
2018-05-25T03:06:51.800Z,82.10
2018-05-25T03:09:53.955Z,82.15
2018-05-25T03:12:56.072Z,81.71
2018-05-25T03:15:58.094Z,82.28
2018-05-25T03:19:01.274Z,82.75
2018-05-25T03:22:05.427Z,83.16
2018-05-25T03:25:07.471Z,82.86
2018-05-25T03:28:10.572Z,82.10
2018-05-25T03:31:12.772Z,82.43
2018-05-25T03:34:14.807Z,82.32
2018-05-25T03:37:16.842Z,82.51
2018-05-25T03:40:18.947Z,82.82
2018-05-25T03:43:20.908Z,82.27
2018-05-25T03:46:23.063Z,82.26
2018-05-25T03:49:25.141Z,82.42
2018-05-25T03:52:27.210Z,82.66
2018-05-25T03:55:29.292Z,82.42
2018-05-25T03:58:40.386Z,81.94
2018-05-25T04:01:58.534Z,82.42
2018-05-25T04:05:05.082Z,82.17
2018-05-25T04:08:07.183Z,82.28
2018-05-25T04:11:09.311Z,82.33
2018-05-25T04:14:11.403Z,81.45
2018-05-25T04:17:19.308Z,82.02
2018-05-25T04:20:21.408Z,81.51
2018-05-25T04:23:23.535Z,81.85
2018-05-25T04:26:25.556Z,81.57
2018-05-25T04:29:27.674Z,81.69
2018-05-25T04:32:29.720Z,81.20
2018-05-25T04:35:31.851Z,82.34
2018-05-25T04:38:33.986Z,81.12
2018-05-25T04:41:36.003Z,81.73
2018-05-25T04:44:38.013Z,81.68
2018-05-25T04:47:40.121Z,82.02
2018-05-25T04:50:42.094Z,81.11
2018-05-25T04:53:44.928Z,81.34
2018-05-25T04:56:47.017Z,81.51
2018-05-25T04:59:50.121Z,80.72
2018-05-25T05:02:52.312Z,81.00
2018-05-25T05:05:54.439Z,80.93
2018-05-25T05:08:56.425Z,81.24
2018-05-25T05:11:58.516Z,81.15
2018-05-25T05:15:00.565Z,81.00
2018-05-25T05:18:03.679Z,81.19
2018-05-25T05:21:06.842Z,81.06
2018-05-25T05:24:08.919Z,80.40
2018-05-25T05:27:11.085Z,80.63
2018-05-25T05:30:13.288Z,80.32
2018-05-25T05:33:16.552Z,80.50
2018-05-25T05:36:18.719Z,79.70
2018-05-25T05:39:20.811Z,79.53
2018-05-25T05:42:22.980Z,79.68
2018-05-25T05:45:25.064Z,79.67
2018-05-25T05:48:27.136Z,79.14
2018-05-25T05:51:29.281Z,79.75
2018-05-25T05:54:33.425Z,79.26
2018-05-25T05:57:35.459Z,79.30
2018-05-25T06:00:37.604Z,79.15
2018-05-25T06:03:39.676Z,78.99
2018-05-25T06:06:41.740Z,79.10
2018-05-25T06:09:43.913Z,78.38
2018-05-25T06:12:46.000Z,78.18
2018-05-25T06:15:48.096Z,77.91
2018-05-25T06:18:50.272Z,78.55
2018-05-25T06:21:52.407Z,77.29
2018-05-25T06:24:54.479Z,77.93
2018-05-25T06:27:56.724Z,77.00
2018-05-25T06:30:58.904Z,76.84
2018-05-25T06:34:01.024Z,76.30
2018-05-25T06:37:07.860Z,75.95
2018-05-25T06:40:09.944Z,75.49
2018-05-25T06:43:12.190Z,74.97
2018-05-25T06:46:14.399Z,74.91
2018-05-25T06:49:17.404Z,75.10
2018-05-25T06:52:19.497Z,74.27
2018-05-25T06:55:21.560Z,74.49
2018-05-25T06:58:23.634Z,74.86
2018-05-25T07:01:25.817Z,74.72
2018-05-25T07:04:28.019Z,73.67
2018-05-25T07:07:30.083Z,74.02
2018-05-25T07:10:32.236Z,73.49
2018-05-25T07:13:34.367Z,73.96
2018-05-25T07:16:36.569Z,73.40
2018-05-25T07:19:38.604Z,72.92
2018-05-25T07:22:40.973Z,73.99
2018-05-25T07:25:43.040Z,73.22
2018-05-25T07:28:48.602Z,72.20
2018-05-25T07:31:50.817Z,71.72
2018-05-25T07:34:52.984Z,72.09
2018-05-25T07:37:55.162Z,70.59
2018-05-25T07:40:57.320Z,71.50
2018-05-25T07:43:59.357Z,71.07
2018-05-25T07:47:01.609Z,69.79
2018-05-25T07:50:03.749Z,69.62
2018-05-25T07:53:05.881Z,69.94
2018-05-25T07:56:08.061Z,70.20
2018-05-25T07:59:10.078Z,70.33
2018-05-25T08:02:12.288Z,68.93
2018-05-25T08:05:14.388Z,67.58
2018-05-25T08:08:17.480Z,68.31
2018-05-25T08:11:19.516Z,68.58
2018-05-25T08:14:21.598Z,67.49
2018-05-25T08:17:23.661Z,68.11
2018-05-25T08:20:25.873Z,69.35
2018-05-25T08:23:28.036Z,70.15
2018-05-25T08:26:30.451Z,68.68
2018-05-25T08:29:32.699Z,69.01
2018-05-25T08:32:34.886Z,68.09
2018-05-25T08:35:37.120Z,68.77
2018-05-25T08:38:39.312Z,68.86
2018-05-25T08:41:42.360Z,66.44
2018-05-25T08:44:44.525Z,67.62
2018-05-25T08:47:49.041Z,65.66
2018-05-25T08:50:51.132Z,65.49
2018-05-25T08:53:53.283Z,64.92
2018-05-25T08:56:55.378Z,65.55
2018-05-25T08:59:57.480Z,67.02
2018-05-25T09:02:59.591Z,67.52
2018-05-25T09:06:01.956Z,65.39
2018-05-25T09:09:04.908Z,65.28
2018-05-25T09:12:07.003Z,62.79
2018-05-25T09:15:09.051Z,64.27
2018-05-25T09:18:11.194Z,62.92
2018-05-25T09:21:13.325Z,63.46
2018-05-25T09:24:15.359Z,63.54
2018-05-25T09:27:18.271Z,62.57
2018-05-25T09:30:20.272Z,62.35
2018-05-25T09:33:22.262Z,62.69
2018-05-25T09:36:24.351Z,61.44
2018-05-25T09:39:26.414Z,61.49
2018-05-25T09:42:28.486Z,61.20
2018-05-25T09:45:30.451Z,60.70
2018-05-25T09:48:32.523Z,60.45
2018-05-25T09:51:34.627Z,58.59
2018-05-25T09:54:36.737Z,60.35
2018-05-25T09:57:42.050Z,62.12
2018-05-25T10:00:44.118Z,61.44
2018-05-25T10:03:47.579Z,62.40
2018-05-25T10:06:49.660Z,62.42
2018-05-25T10:09:51.734Z,62.40
2018-05-25T10:12:54.813Z,62.96
2018-05-25T10:15:57.914Z,63.40
2018-05-25T10:19:00.028Z,62.76
2018-05-25T10:22:02.169Z,60.73
2018-05-25T10:25:04.338Z,60.39
2018-05-25T10:28:06.364Z,58.36
2018-05-25T10:31:08.467Z,57.64
2018-05-25T10:34:10.622Z,60.15
2018-05-25T10:37:12.785Z,58.69
2018-05-25T10:40:14.969Z,59.41
2018-05-25T10:43:18.075Z,56.87
2018-05-25T10:46:20.143Z,56.97
2018-05-25T10:49:22.103Z,57.63
2018-05-25T10:52:24.155Z,57.72
2018-05-25T10:55:26.388Z,57.24
2018-05-25T10:58:28.519Z,56.47
2018-05-25T11:01:30.570Z,57.39
2018-05-25T11:04:32.740Z,57.44
2018-05-25T11:07:34.812Z,55.88
2018-05-25T11:10:36.870Z,55.96
2018-05-25T11:13:39.001Z,57.54
2018-05-25T11:16:41.340Z,58.30
2018-05-25T11:19:43.553Z,58.57
2018-05-25T11:22:45.810Z,56.69
2018-05-25T11:25:48.567Z,57.06
2018-05-25T11:28:50.791Z,56.23
2018-05-25T11:31:52.881Z,56.46
2018-05-25T11:34:55.040Z,55.93
2018-05-25T11:37:57.292Z,54.52
2018-05-25T11:40:59.563Z,53.68
2018-05-25T11:44:01.698Z,54.64
2018-05-25T11:47:03.784Z,54.36
2018-05-25T11:50:05.816Z,53.56
2018-05-25T11:53:07.910Z,52.70
2018-05-25T11:56:10.039Z,53.18
2018-05-25T11:59:13.129Z,53.13
2018-05-25T12:02:15.176Z,54.64
2018-05-25T12:05:18.227Z,55.61
2018-05-25T12:08:20.287Z,54.65
2018-05-25T12:11:22.393Z,54.48
2018-05-25T12:14:24.546Z,52.24
2018-05-25T12:17:26.684Z,51.74
2018-05-25T12:20:28.744Z,51.22
2018-05-25T12:23:30.910Z,49.88
2018-05-25T12:26:33.110Z,48.53
2018-05-25T12:29:35.234Z,48.71
2018-05-25T12:32:37.383Z,49.38
2018-05-25T12:35:39.385Z,48.39
2018-05-25T12:38:41.720Z,46.81
2018-05-25T12:41:43.854Z,48.02
2018-05-25T12:44:55.117Z,50.42
2018-05-25T12:47:57.242Z,50.34
2018-05-25T12:50:59.215Z,50.77
2018-05-25T12:54:01.257Z,50.41
2018-05-25T12:57:04.334Z,50.53
2018-05-25T13:00:06.435Z,51.25
2018-05-25T13:03:08.479Z,52.00
2018-05-25T13:06:10.658Z,51.88
2018-05-25T13:09:12.718Z,52.25
2018-05-25T13:12:15.096Z,52.15
2018-05-25T13:15:17.173Z,50.24
2018-05-25T13:18:19.384Z,48.57
2018-05-25T13:21:21.315Z,47.76
2018-05-25T13:24:23.486Z,46.49
2018-05-25T13:27:26.363Z,46.03
2018-05-25T13:30:29.099Z,46.83
2018-05-25T13:33:31.273Z,47.49
2018-05-25T13:36:33.811Z,49.67
2018-05-25T13:39:35.879Z,47.91
2018-05-25T13:42:37.999Z,45.84
2018-05-25T13:45:40.098Z,47.57
2018-05-25T13:48:43.154Z,45.82
2018-05-25T13:51:45.273Z,45.64
2018-05-25T13:54:47.388Z,45.03
2018-05-25T13:57:49.417Z,44.43
2018-05-25T14:00:51.527Z,44.79
2018-05-25T14:03:53.549Z,43.93
2018-05-25T14:06:56.689Z,44.32
2018-05-25T14:09:58.639Z,42.67
2018-05-25T14:13:01.799Z,42.84
2018-05-25T14:16:04.464Z,43.98
2018-05-25T14:19:06.535Z,40.88
2018-05-25T14:22:09.044Z,42.01
2018-05-25T14:25:11.207Z,41.60
2018-05-25T14:28:13.270Z,42.24
2018-05-25T14:31:15.431Z,41.15
2018-05-25T14:34:17.509Z,40.64
2018-05-25T14:37:19.698Z,41.02
2018-05-25T14:40:21.860Z,39.56
2018-05-25T14:43:23.905Z,39.85
2018-05-25T14:46:26.095Z,40.10
2018-05-25T14:49:28.253Z,39.17
2018-05-25T14:52:30.312Z,39.11
2018-05-25T14:55:32.283Z,39.35
2018-05-25T14:58:34.964Z,38.70
2018-05-25T15:01:37.047Z,39.58
2018-05-25T15:04:39.079Z,38.46
2018-05-25T15:07:41.190Z,39.91
2018-05-25T15:10:43.260Z,38.99
2018-05-25T15:13:45.337Z,39.40
2018-05-25T15:16:47.491Z,39.63
2018-05-25T15:19:49.560Z,39.56
2018-05-25T15:22:51.803Z,39.22
2018-05-25T15:25:53.906Z,39.29
2018-05-25T15:28:56.096Z,38.75
2018-05-25T15:31:58.102Z,38.54
2018-05-25T15:35:00.111Z,38.80
2018-05-25T15:38:02.193Z,36.75
2018-05-25T15:41:05.378Z,35.34
2018-05-25T15:44:07.408Z,34.32
2018-05-25T15:47:10.636Z,36.71
2018-05-25T15:50:12.819Z,36.55
2018-05-25T15:53:14.887Z,35.83
2018-05-25T15:56:16.999Z,35.94
2018-05-25T15:59:19.120Z,35.34
2018-05-25T16:02:21.229Z,35.97
2018-05-25T16:05:23.268Z,36.31
2018-05-25T16:08:25.427Z,37.37
2018-05-25T16:11:27.468Z,37.96
2018-05-25T16:14:29.558Z,37.27
2018-05-25T16:17:31.601Z,36.74
2018-05-25T16:20:33.709Z,37.12
2018-05-25T16:23:36.423Z,37.31
2018-05-25T16:26:38.452Z,37.43
2018-05-25T16:29:40.523Z,37.44
2018-05-25T16:32:42.640Z,37.80
2018-05-25T16:35:44.700Z,37.09
2018-05-25T16:38:46.859Z,37.38
2018-05-25T16:41:49.056Z,37.32
2018-05-25T16:44:51.144Z,35.97
2018-05-25T16:47:53.228Z,36.48
2018-05-25T16:50:55.346Z,38.06
2018-05-25T16:53:58.463Z,37.41
2018-05-25T16:57:00.548Z,38.22
2018-05-25T17:00:02.691Z,37.14
2018-05-25T17:03:05.542Z,38.03
2018-05-25T17:06:07.688Z,38.31
2018-05-25T17:09:09.716Z,38.83
2018-05-25T17:12:11.840Z,39.37
2018-05-25T17:15:13.887Z,39.36
2018-05-25T17:18:15.988Z,38.82
2018-05-25T17:21:18.133Z,39.66
2018-05-25T17:24:20.213Z,39.37
2018-05-25T17:27:22.317Z,39.21
2018-05-25T17:30:24.352Z,39.61
2018-05-25T17:33:26.367Z,40.19
2018-05-25T17:36:28.496Z,39.91
2018-05-25T17:39:30.523Z,41.14
2018-05-25T17:42:32.775Z,40.85
2018-05-25T17:45:35.583Z,40.65
2018-05-25T17:48:37.570Z,40.50
2018-05-25T17:51:39.636Z,41.07
2018-05-25T17:54:41.716Z,40.88
2018-05-25T17:57:43.892Z,41.06
2018-05-25T18:00:45.956Z,41.02
2018-05-25T18:03:48.023Z,41.28
2018-05-25T18:06:50.099Z,41.82
2018-05-25T18:09:52.141Z,41.90
2018-05-25T18:12:54.255Z,42.73
2018-05-25T18:15:56.410Z,42.47
2018-05-25T18:18:59.483Z,43.16
2018-05-25T18:22:01.584Z,43.69
2018-05-25T18:25:03.760Z,43.47
2018-05-25T18:28:05.788Z,44.06
2018-05-25T18:31:07.892Z,44.04
2018-05-25T18:34:09.924Z,44.47
2018-05-25T18:37:12.009Z,44.98
2018-05-25T18:40:14.069Z,45.41
2018-05-25T18:43:16.148Z,45.65
2018-05-25T18:46:18.089Z,46.46
2018-05-25T18:49:20.766Z,46.78
2018-05-25T18:52:22.855Z,47.60
2018-05-25T18:55:25.042Z,47.53
2018-05-25T18:58:27.111Z,47.55
2018-05-25T19:01:30.042Z,47.94
2018-05-25T19:04:33.256Z,49.35
2018-05-25T19:07:35.864Z,51.54
2018-05-25T19:10:38.973Z,53.18
2018-05-25T19:13:41.143Z,53.47
2018-05-25T19:16:43.212Z,53.65
2018-05-25T19:19:46.315Z,54.29
2018-05-25T19:22:48.388Z,54.00
2018-05-25T19:25:51.493Z,53.98
2018-05-25T19:28:53.511Z,54.83
2018-05-25T19:31:55.600Z,54.49
2018-05-25T19:34:57.669Z,55.88
2018-05-25T19:38:00.746Z,56.71
2018-05-25T19:41:02.916Z,57.00
2018-05-25T19:44:05.082Z,56.91
2018-05-25T19:47:07.041Z,57.95
2018-05-25T19:50:09.115Z,58.58
2018-05-25T19:53:12.228Z,58.71
2018-05-25T19:56:14.416Z,59.02
2018-05-25T19:59:16.446Z,58.80
2018-05-25T20:02:18.515Z,59.28
2018-05-25T20:05:20.658Z,59.49
2018-05-25T20:08:22.914Z,59.42
2018-05-25T20:11:24.961Z,59.67
2018-05-25T20:14:27.149Z,59.93
2018-05-25T20:17:30.601Z,60.32
2018-05-25T20:20:32.700Z,61.35
2018-05-25T20:23:34.657Z,61.54
2018-05-25T20:26:36.713Z,62.08
2018-05-25T20:29:38.955Z,62.33
2018-05-25T20:32:42.118Z,62.67
2018-05-25T20:35:44.131Z,63.28
2018-05-25T20:38:46.214Z,64.03
2018-05-25T20:41:48.264Z,64.40
2018-05-25T20:44:50.329Z,64.21
2018-05-25T20:47:52.319Z,64.75
2018-05-25T20:50:54.377Z,64.81
2018-05-25T20:53:56.479Z,64.22
2018-05-25T20:56:58.513Z,62.92
2018-05-25T21:00:01.180Z,63.15
2018-05-25T21:03:03.244Z,62.70
2018-05-25T21:06:05.784Z,62.11
2018-05-25T21:09:07.919Z,61.97
2018-05-25T21:12:10.001Z,62.45
2018-05-25T21:15:12.047Z,62.05
2018-05-25T21:18:14.108Z,61.66
2018-05-25T21:21:16.218Z,61.70
2018-05-25T21:24:21.544Z,62.03
2018-05-25T21:27:23.614Z,62.27
2018-05-25T21:30:25.677Z,62.22
2018-05-25T21:33:27.968Z,62.82
2018-05-25T21:36:29.912Z,61.79
2018-05-25T21:39:32.499Z,62.31
2018-05-25T21:42:34.586Z,62.62
2018-05-25T21:45:36.671Z,62.79
2018-05-25T21:48:38.707Z,62.08
2018-05-25T21:51:40.742Z,62.37
2018-05-25T21:54:42.775Z,63.22
2018-05-25T21:57:44.991Z,62.66
2018-05-25T22:00:47.706Z,62.31
2018-05-25T22:03:49.779Z,62.51
2018-05-25T22:06:51.959Z,62.66
2018-05-25T22:09:53.984Z,63.50
2018-05-25T22:12:56.060Z,63.69
2018-05-25T22:15:58.332Z,63.36
2018-05-25T22:19:01.636Z,63.36
2018-05-25T22:22:03.696Z,63.04
2018-05-25T22:25:05.778Z,64.19
2018-05-25T22:28:08.365Z,64.42
2018-05-25T22:31:10.408Z,63.96
2018-05-25T22:34:12.518Z,63.75
2018-05-25T22:37:14.552Z,64.20
2018-05-25T22:40:16.545Z,64.64
2018-05-25T22:43:30.319Z,64.37
2018-05-25T22:46:43.947Z,64.71
2018-05-25T22:49:57.483Z,64.71
2018-05-25T22:53:03.192Z,64.31
2018-05-25T22:56:05.132Z,64.28
2018-05-25T22:59:07.323Z,64.47
2018-05-25T23:02:09.402Z,64.44
2018-05-25T23:05:12.397Z,64.06
2018-05-25T23:08:14.471Z,64.07
2018-05-25T23:11:16.538Z,64.40
2018-05-25T23:14:18.608Z,63.79
2018-05-25T23:17:20.698Z,64.32
2018-05-25T23:20:22.715Z,64.21
2018-05-25T23:23:24.730Z,64.25
2018-05-25T23:26:27.856Z,64.44
2018-05-25T23:29:30.920Z,64.41
2018-05-25T23:32:32.949Z,64.03
2018-05-25T23:35:35.019Z,64.51
2018-05-25T23:38:37.112Z,64.43
2018-05-25T23:41:40.095Z,64.24
2018-05-25T23:44:42.159Z,64.42
2018-05-25T23:47:44.218Z,64.72
2018-05-25T23:50:46.328Z,64.44
2018-05-25T23:53:48.463Z,65.09
2018-05-25T23:56:50.517Z,65.15
2018-05-25T23:59:52.592Z,64.98
